Time;durP1;ratioP1;P1;durP2;ratioP2;P2;SDS_P1;SDS_P2;PMS_P1;PMS_P2;Temp;Humidity;BMP_temperature;BMP_pressure;BME280_temperature;BME280_humidity;BME280_pressure;Samples;Min_cycle;Max_cycle;Signal;HPM_P1;HPM_P2
2023/08/20 00:01:07;;;;;;;25.60;8.27;;;;;;;;;;5032876;28;20480;-75
2023/08/20 00:03:34;;;;;;;24.83;8.40;;;;;;;;;;5034420;28;20091;-74
2023/08/20 00:06:00;;;;;;;30.40;8.77;;;;;;;;;;5034795;28;20055;-72
2023/08/20 00:08:26;;;;;;;29.00;8.15;;;;;;;;;;5034887;28;20487;-74
2023/08/20 00:10:52;;;;;;;36.92;8.93;;;;;;;;;;5034030;28;20029;-73
2023/08/20 00:13:18;;;;;;;30.98;8.38;;;;;;;;;;5034976;28;20455;-76
2023/08/20 00:15:44;;;;;;;22.05;8.15;;;;;;;;;;5036947;28;20033;-76
2023/08/20 00:18:10;;;;;;;24.00;8.73;;;;;;;;;;5035513;28;20025;-77
2023/08/20 00:20:36;;;;;;;27.15;8.32;;;;;;;;;;5035654;28;20044;-75
2023/08/20 00:23:02;;;;;;;26.33;9.88;;;;;;;;;;5035437;28;20483;-76
2023/08/20 00:25:28;;;;;;;24.02;9.82;;;;;;;;;;5036684;28;20038;-75
2023/08/20 00:27:54;;;;;;;27.08;10.07;;;;;;;;;;5038973;28;20029;-76
2023/08/20 00:30:21;;;;;;;29.05;11.18;;;;;;;;;;5037792;28;20026;-75
2023/08/20 00:32:47;;;;;;;31.90;10.57;;;;;;;;;;5040362;28;20029;-75
2023/08/20 00:35:13;;;;;;;31.08;10.90;;;;;;;;;;5043594;28;20033;-75
2023/08/20 00:37:39;;;;;;;27.25;11.38;;;;;;;;;;5044335;28;20029;-75
2023/08/20 00:40:05;;;;;;;33.88;12.07;;;;;;;;;;5041022;28;20100;-76
2023/08/20 00:42:31;;;;;;;29.30;9.93;;;;;;;;;;5036487;28;20022;-75
2023/08/20 00:44:57;;;;;;;34.22;11.52;;;;;;;;;;5038120;28;20029;-75
2023/08/20 00:47:23;;;;;;;30.08;10.40;;;;;;;;;;5037283;28;20043;-74
2023/08/20 00:49:49;;;;;;;28.70;9.75;;;;;;;;;;5034532;28;20025;-74
2023/08/20 00:52:17;;;;;;;28.75;10.52;;;;;;;;;;5034136;28;20452;-75
2023/08/20 00:54:45;;;;;;;24.83;10.77;;;;;;;;;;5034377;28;20026;-75
2023/08/20 00:57:12;;;;;;;27.92;10.88;;;;;;;;;;5034364;28;20022;-75
2023/08/20 00:59:38;;;;;;;29.23;11.10;;;;;;;;;;5034555;28;20396;-75
2023/08/20 01:02:05;;;;;;;28.98;11.30;;;;;;;;;;5033937;28;20025;-75
2023/08/20 01:04:31;;;;;;;33.60;10.95;;;;;;;;;;5034335;28;20159;-75
2023/08/20 01:06:57;;;;;;;23.15;10.10;;;;;;;;;;5033647;28;20021;-75
2023/08/20 01:09:43;;;;;;;23.85;10.88;;;;;;;;;;5034312;28;20368;-76
2023/08/20 01:12:10;;;;;;;38.10;13.13;;;;;;;;;;5034063;28;20502;-75
2023/08/20 01:14:36;;;;;;;30.90;11.07;;;;;;;;;;5034139;28;20060;-75
2023/08/20 01:17:02;;;;;;;25.27;10.18;;;;;;;;;;5034566;28;20483;-75
2023/08/20 01:19:28;;;;;;;21.50;9.38;;;;;;;;;;5051475;28;20029;-75
2023/08/20 01:22:13;;;;;;;26.45;10.45;;;;;;;;;;5034058;28;20499;-74
2023/08/20 01:24:59;;;;;;;28.95;10.30;;;;;;;;;;5031875;28;20041;-75
2023/08/20 01:27:45;;;;;;;26.25;10.05;;;;;;;;;;5032625;28;20095;-75
2023/08/20 01:30:11;;;;;;;34.85;12.02;;;;;;;;;;5033202;28;20024;-74
2023/08/20 01:32:37;;;;;;;27.77;10.90;;;;;;;;;;5035418;28;20021;-74
2023/08/20 01:35:03;;;;;;;25.17;10.57;;;;;;;;;;5047353;28;20021;-75
2023/08/20 01:37:29;;;;;;;34.72;10.82;;;;;;;;;;5058038;28;20049;-75
2023/08/20 01:39:55;;;;;;;28.25;10.73;;;;;;;;;;5058375;28;20018;-74
2023/08/20 01:42:21;;;;;;;27.70;10.75;;;;;;;;;;5056141;28;20044;-74
2023/08/20 01:44:47;;;;;;;31.65;11.50;;;;;;;;;;5043217;28;20068;-74
2023/08/20 01:47:13;;;;;;;23.80;10.60;;;;;;;;;;5033488;28;20112;-75
2023/08/20 01:49:39;;;;;;;24.25;9.90;;;;;;;;;;5032947;28;20025;-76
2023/08/20 01:52:05;;;;;;;31.83;10.55;;;;;;;;;;5034351;28;20022;-76
2023/08/20 01:54:31;;;;;;;25.45;10.00;;;;;;;;;;5034696;28;20029;-76
2023/08/20 01:56:57;;;;;;;31.98;10.90;;;;;;;;;;5033547;28;20037;-76
2023/08/20 01:59:23;;;;;;;30.23;10.55;;;;;;;;;;5032459;28;20022;-75
2023/08/20 02:01:49;;;;;;;25.35;9.85;;;;;;;;;;5031622;28;20049;-75
2023/08/20 02:04:15;;;;;;;27.33;10.52;;;;;;;;;;5031769;28;20079;-75
2023/08/20 02:06:41;;;;;;;26.55;9.52;;;;;;;;;;5032182;28;20025;-75
2023/08/20 02:09:07;;;;;;;23.50;10.25;;;;;;;;;;5032211;28;20494;-76
2023/08/20 02:11:35;;;;;;;29.98;9.95;;;;;;;;;;5032051;28;20030;-76
2023/08/20 02:14:02;;;;;;;23.85;9.77;;;;;;;;;;5031292;28;20399;-75
2023/08/20 02:16:28;;;;;;;24.48;10.18;;;;;;;;;;5033736;28;20018;-75
2023/08/20 02:18:54;;;;;;;33.47;11.60;;;;;;;;;;5032180;28;20025;-75
2023/08/20 02:21:20;;;;;;;25.55;10.55;;;;;;;;;;5034261;28;20027;-75
2023/08/20 02:23:46;;;;;;;24.75;11.13;;;;;;;;;;5031192;28;20029;-75
2023/08/20 02:26:12;;;;;;;30.95;10.27;;;;;;;;;;5031750;28;20036;-75
2023/08/20 02:28:38;;;;;;;31.38;11.40;;;;;;;;;;5031175;28;20021;-75
2023/08/20 02:31:05;;;;;;;27.02;10.90;;;;;;;;;;5031775;28;20375;-76
2023/08/20 02:33:31;;;;;;;25.52;10.07;;;;;;;;;;5033277;28;20022;-74
2023/08/20 02:36:02;;;;;;;23.13;10.35;;;;;;;;;;5035252;28;20535;-75
2023/08/20 02:38:28;;;;;;;26.30;10.25;;;;;;;;;;5034890;28;20076;-75
2023/08/20 02:40:54;;;;;;;23.38;10.82;;;;;;;;;;5034393;28;20025;-76
2023/08/20 02:43:20;;;;;;;24.65;10.13;;;;;;;;;;5033241;28;20143;-75
2023/08/20 02:45:46;;;;;;;29.67;11.45;;;;;;;;;;5032318;28;20145;-74
2023/08/20 02:48:12;;;;;;;39.50;12.43;;;;;;;;;;5031312;28;20204;-75
2023/08/20 02:50:38;;;;;;;29.42;11.13;;;;;;;;;;5031360;28;20033;-75
2023/08/20 02:53:04;;;;;;;30.60;12.02;;;;;;;;;;5030505;28;20018;-75
2023/08/20 02:55:31;;;;;;;27.52;10.23;;;;;;;;;;5030715;28;20029;-74
2023/08/20 02:57:57;;;;;;;30.10;11.48;;;;;;;;;;5030965;28;20029;-75
2023/08/20 03:00:23;;;;;;;23.50;10.70;;;;;;;;;;5031293;28;20356;-74
2023/08/20 03:02:49;;;;;;;29.35;10.88;;;;;;;;;;5028325;28;20108;-74
2023/08/20 03:05:15;;;;;;;23.55;10.23;;;;;;;;;;5030765;28;20480;-74
2023/08/20 03:07:41;;;;;;;26.58;10.73;;;;;;;;;;5030623;28;20098;-74
2023/08/20 03:10:07;;;;;;;24.38;9.82;;;;;;;;;;5031180;28;20029;-75
2023/08/20 03:12:33;;;;;;;34.70;10.80;;;;;;;;;;5030476;28;20032;-76
2023/08/20 03:15:02;;;;;;;25.38;9.93;;;;;;;;;;5031515;28;20048;-76
2023/08/20 03:17:29;;;;;;;22.85;9.80;;;;;;;;;;5035421;28;20025;-76
2023/08/20 03:19:56;;;;;;;24.52;11.30;;;;;;;;;;5055204;28;20021;-75
2023/08/20 03:22:22;;;;;;;20.55;9.98;;;;;;;;;;5054636;28;20064;-75
2023/08/20 03:24:48;;;;;;;25.48;11.50;;;;;;;;;;5053472;28;20055;-77
2023/08/20 03:27:14;;;;;;;24.67;11.25;;;;;;;;;;5048055;28;20030;-75
2023/08/20 03:29:40;;;;;;;28.52;11.20;;;;;;;;;;5036748;28;20092;-76
2023/08/20 03:32:06;;;;;;;30.55;11.48;;;;;;;;;;5039760;28;20104;-76
2023/08/20 03:34:32;;;;;;;29.42;10.95;;;;;;;;;;5038345;28;20029;-76
2023/08/20 03:36:58;;;;;;;34.63;13.45;;;;;;;;;;5038252;28;20107;-75
2023/08/20 03:39:24;;;;;;;27.23;12.65;;;;;;;;;;5038275;28;20033;-76
2023/08/20 03:41:50;;;;;;;25.55;10.65;;;;;;;;;;5038763;28;20364;-76
2023/08/20 03:44:17;;;;;;;22.80;10.27;;;;;;;;;;5039411;28;20040;-76
2023/08/20 03:46:43;;;;;;;25.23;9.80;;;;;;;;;;5040135;28;20022;-77
2023/08/20 03:49:09;;;;;;;20.58;9.40;;;;;;;;;;5037157;28;20032;-76
2023/08/20 03:51:35;;;;;;;24.73;9.68;;;;;;;;;;5038494;28;20049;-75
2023/08/20 03:54:01;;;;;;;24.05;10.30;;;;;;;;;;5038410;28;20026;-76
2023/08/20 03:56:27;;;;;;;23.27;9.77;;;;;;;;;;5038375;28;20029;-76
2023/08/20 03:58:53;;;;;;;21.65;10.00;;;;;;;;;;5038178;28;20026;-76
2023/08/20 04:01:19;;;;;;;30.55;12.13;;;;;;;;;;5038188;28;20471;-77
2023/08/20 04:03:48;;;;;;;22.23;10.80;;;;;;;;;;5038273;28;20026;-77
2023/08/20 04:06:14;;;;;;;20.55;11.77;;;;;;;;;;5038666;28;20025;-77
2023/08/20 04:08:40;;;;;;;21.80;10.32;;;;;;;;;;5040253;28;20028;-75
2023/08/20 04:11:07;;;;;;;20.73;10.25;;;;;;;;;;5038540;28;20076;-76
2023/08/20 04:13:33;;;;;;;26.05;10.85;;;;;;;;;;5037990;28;20029;-76
2023/08/20 04:15:59;;;;;;;24.85;11.10;;;;;;;;;;5038492;28;20025;-76
2023/08/20 04:18:25;;;;;;;24.30;10.38;;;;;;;;;;5038574;28;20025;-74
2023/08/20 04:20:52;;;;;;;17.67;10.77;;;;;;;;;;5038038;28;20029;-74
2023/08/20 04:23:18;;;;;;;24.25;11.88;;;;;;;;;;5037796;28;20033;-76
2023/08/20 04:25:44;;;;;;;17.27;10.65;;;;;;;;;;5038030;28;20028;-76
2023/08/20 04:28:11;;;;;;;25.17;11.68;;;;;;;;;;5037943;28;20053;-76
2023/08/20 04:30:37;;;;;;;25.33;13.15;;;;;;;;;;5037999;28;20124;-77
2023/08/20 04:33:03;;;;;;;22.60;11.48;;;;;;;;;;5037711;28;20033;-76
2023/08/20 04:35:29;;;;;;;21.77;12.23;;;;;;;;;;5038686;28;20033;-76
2023/08/20 04:37:55;;;;;;;23.63;12.63;;;;;;;;;;5038067;28;20025;-76
2023/08/20 04:40:21;;;;;;;22.80;13.57;;;;;;;;;;5035997;28;20112;-76
2023/08/20 04:42:47;;;;;;;22.52;14.30;;;;;;;;;;5034467;28;20033;-76
2023/08/20 04:45:13;;;;;;;139.40;15.07;;;;;;;;;;5035235;28;20040;-76
2023/08/20 04:47:39;;;;;;;20.35;12.70;;;;;;;;;;5034952;28;20511;-77
2023/08/20 04:50:08;;;;;;;23.40;11.68;;;;;;;;;;5035354;28;20459;-76
2023/08/20 04:52:34;;;;;;;30.75;13.18;;;;;;;;;;5035147;28;20053;-75
2023/08/20 04:55:01;;;;;;;13.18;10.93;;;;;;;;;;5035014;28;20032;-76
2023/08/20 04:57:27;;;;;;;14.85;10.80;;;;;;;;;;5034344;28;20037;-76
2023/08/20 04:59:53;;;;;;;16.73;11.32;;;;;;;;;;5035665;28;20087;-78
2023/08/20 05:02:19;;;;;;;19.13;12.32;;;;;;;;;;5041309;28;20044;-80
2023/08/20 05:04:45;;;;;;;17.90;11.10;;;;;;;;;;5059453;28;20025;-78
2023/08/20 05:07:11;;;;;;;14.40;11.73;;;;;;;;;;5059061;28;20021;-78
2023/08/20 05:09:37;;;;;;;13.95;10.70;;;;;;;;;;5041711;28;20056;-78
2023/08/20 05:12:03;;;;;;;19.00;11.00;;;;;;;;;;5033041;28;20463;-77
2023/08/20 05:14:30;;;;;;;12.98;10.40;;;;;;;;;;5032321;28;20037;-78
2023/08/20 05:16:56;;;;;;;18.27;11.85;;;;;;;;;;5027343;28;20057;-77
2023/08/20 05:19:22;;;;;;;15.27;11.57;;;;;;;;;;5036602;28;20026;-76
2023/08/20 05:21:48;;;;;;;15.35;12.13;;;;;;;;;;5034801;28;20036;-77
2023/08/20 05:24:14;;;;;;;19.90;12.52;;;;;;;;;;5040457;28;20022;-77
2023/08/20 05:26:41;;;;;;;17.05;12.10;;;;;;;;;;5042918;28;20099;-76
2023/08/20 05:29:07;;;;;;;19.90;11.98;;;;;;;;;;5042265;28;20406;-78
2023/08/20 05:31:34;;;;;;;42.53;13.82;;;;;;;;;;5035608;28;20104;-76
2023/08/20 05:34:00;;;;;;;24.25;14.90;;;;;;;;;;5032063;28;20017;-79
2023/08/20 05:36:26;;;;;;;22.77;13.80;;;;;;;;;;5030803;28;20695;-74
2023/08/20 05:38:52;;;;;;;30.45;13.13;;;;;;;;;;5032209;28;20068;-74
2023/08/20 05:41:18;;;;;;;18.00;12.95;;;;;;;;;;5032236;28;20049;-75
2023/08/20 05:43:44;;;;;;;22.55;12.70;;;;;;;;;;5029824;28;20112;-75
2023/08/20 05:46:10;;;;;;;13.93;10.00;;;;;;;;;;5030317;28;20052;-73
2023/08/20 05:48:36;;;;;;;21.75;10.20;;;;;;;;;;5031787;28;20423;-72
2023/08/20 05:51:02;;;;;;;14.77;10.73;;;;;;;;;;5033922;28;20025;-76
2023/08/20 05:53:28;;;;;;;13.70;10.32;;;;;;;;;;5035715;28;20021;-76
2023/08/20 05:55:54;;;;;;;14.57;9.32;;;;;;;;;;5036525;28;20025;-73
2023/08/20 05:58:20;;;;;;;23.50;10.13;;;;;;;;;;5033312;28;20104;-74
2023/08/20 06:00:46;;;;;;;13.40;9.23;;;;;;;;;;5033140;28;20518;-74
2023/08/20 06:03:12;;;;;;;10.90;7.72;;;;;;;;;;5032324;28;20104;-75
2023/08/20 06:05:38;;;;;;;21.38;8.50;;;;;;;;;;5032907;28;20627;-74
2023/08/20 06:08:04;;;;;;;14.23;7.43;;;;;;;;;;5034347;28;20091;-75
2023/08/20 06:10:30;;;;;;;11.10;7.35;;;;;;;;;;5033031;28;20030;-75
2023/08/20 06:12:57;;;;;;;16.30;9.70;;;;;;;;;;5032261;28;20022;-74
2023/08/20 06:15:23;;;;;;;12.50;8.00;;;;;;;;;;5031126;28;20056;-75
2023/08/20 06:17:49;;;;;;;15.95;9.00;;;;;;;;;;5033115;28;20095;-74
2023/08/20 06:20:15;;;;;;;14.13;7.28;;;;;;;;;;5033965;28;20068;-74
2023/08/20 06:22:41;;;;;;;16.27;9.00;;;;;;;;;;5031266;28;20074;-74
2023/08/20 06:25:07;;;;;;;12.82;6.90;;;;;;;;;;5033474;28;20039;-74
2023/08/20 06:27:33;;;;;;;17.52;7.30;;;;;;;;;;5033848;28;20073;-74
2023/08/20 06:30:00;;;;;;;16.98;7.57;;;;;;;;;;5034053;28;20048;-74
2023/08/20 06:32:26;;;;;;;16.90;9.32;;;;;;;;;;5033540;28;20026;-74
2023/08/20 06:34:52;;;;;;;21.38;10.80;;;;;;;;;;5037835;28;20095;-75
2023/08/20 06:37:18;;;;;;;19.27;8.88;;;;;;;;;;5037805;28;20033;-74
2023/08/20 06:39:44;;;;;;;15.10;7.97;;;;;;;;;;5033171;28;20053;-71
2023/08/20 06:42:10;;;;;;;20.48;9.07;;;;;;;;;;5033023;28;20408;-74
2023/08/20 06:44:36;;;;;;;20.90;11.15;;;;;;;;;;5033619;28;20051;-74
2023/08/20 06:47:02;;;;;;;24.30;10.90;;;;;;;;;;5034578;28;20029;-74
2023/08/20 06:49:28;;;;;;;21.55;9.10;;;;;;;;;;5033460;28;20112;-74
2023/08/20 06:51:54;;;;;;;22.35;9.52;;;;;;;;;;5034060;28;20017;-72
2023/08/20 06:54:19;;;;;;;16.60;8.60;;;;;;;;;;5033896;28;20034;-72
2023/08/20 06:56:45;;;;;;;22.30;9.18;;;;;;;;;;5031830;28;20026;-71
2023/08/20 06:59:12;;;;;;;20.48;8.50;;;;;;;;;;5030795;28;20108;-75
2023/08/20 07:01:38;;;;;;;19.35;8.65;;;;;;;;;;5030304;28;20033;-72
2023/08/20 07:04:04;;;;;;;19.65;8.85;;;;;;;;;;5029602;28;20430;-72
2023/08/20 07:06:30;;;;;;;23.75;9.63;;;;;;;;;;5031180;28;20044;-75
2023/08/20 07:08:56;;;;;;;17.58;8.30;;;;;;;;;;5031900;28;20458;-77
2023/08/20 07:11:22;;;;;;;21.02;9.77;;;;;;;;;;5032008;28;20391;-76
2023/08/20 07:13:48;;;;;;;23.65;10.13;;;;;;;;;;5030981;28;20026;-75
2023/08/20 07:16:14;;;;;;;21.45;9.20;;;;;;;;;;5031464;28;20456;-75
2023/08/20 07:18:40;;;;;;;26.20;11.88;;;;;;;;;;5031788;28;20026;-75
2023/08/20 07:21:07;;;;;;;23.15;11.25;;;;;;;;;;5031684;28;20041;-72
2023/08/20 07:23:34;;;;;;;20.98;11.07;;;;;;;;;;5030209;28;20420;-73
2023/08/20 07:26:07;;;;;;;19.33;9.77;;;;;;;;;;5033617;28;20021;-73
2023/08/20 07:31:17;;;;;;;;;;;;;;;;;;5033191;28;20434;-73
2023/08/20 07:33:47;;;;;;;16.17;9.45;;;;;;;;;;5030172;28;19905;-74
2023/08/20 07:36:13;;;;;;;16.83;9.07;;;;;;;;;;5030972;28;20034;-74
2023/08/20 07:38:42;;;;;;;15.43;8.88;;;;;;;;;;5029753;28;20104;-75
2023/08/20 07:41:08;;;;;;;16.98;8.68;;;;;;;;;;5030876;28;20391;-76
2023/08/20 07:43:34;;;;;;;20.40;8.10;;;;;;;;;;5030426;28;20034;-74
2023/08/20 07:46:00;;;;;;;13.63;6.88;;;;;;;;;;5031045;28;20029;-75
2023/08/20 07:48:26;;;;;;;16.65;8.15;;;;;;;;;;5030601;28;20040;-72
2023/08/20 07:50:52;;;;;;;21.50;9.15;;;;;;;;;;5030218;28;20029;-73
2023/08/20 07:53:18;;;;;;;20.23;12.18;;;;;;;;;;5030858;28;20036;-73
2023/08/20 07:55:45;;;;;;;19.80;11.98;;;;;;;;;;5031809;28;20104;-75
2023/08/20 07:58:11;;;;;;;23.92;12.82;;;;;;;;;;5036572;28;20044;-72
2023/08/20 08:00:37;;;;;;;28.65;15.50;;;;;;;;;;5041608;28;20044;-75
2023/08/20 08:03:03;;;;;;;32.25;19.20;;;;;;;;;;5034887;28;20109;-73
2023/08/20 08:05:29;;;;;;;31.73;16.17;;;;;;;;;;5040620;28;20033;-73
2023/08/20 08:07:55;;;;;;;29.83;16.77;;;;;;;;;;5030151;28;20057;-74
2023/08/20 08:10:21;;;;;;;27.55;13.90;;;;;;;;;;5031348;28;20033;-74
2023/08/20 08:12:47;;;;;;;24.92;15.05;;;;;;;;;;5030145;28;20471;-73
2023/08/20 08:15:13;;;;;;;23.40;13.07;;;;;;;;;;5029881;28;20033;-75
2023/08/20 08:17:40;;;;;;;32.47;13.10;;;;;;;;;;5034466;28;20029;-74
2023/08/20 08:20:06;;;;;;;20.52;11.10;;;;;;;;;;5034511;28;20029;-75
2023/08/20 08:22:32;;;;;;;28.83;13.00;;;;;;;;;;5034089;28;20029;-75
2023/08/20 08:24:58;;;;;;;19.02;12.00;;;;;;;;;;5035379;28;20534;-74
2023/08/20 08:27:24;;;;;;;22.75;11.32;;;;;;;;;;5034345;28;20026;-75
2023/08/20 08:29:51;;;;;;;19.83;9.40;;;;;;;;;;5043489;28;20006;-73
2023/08/20 08:32:17;;;;;;;22.02;10.18;;;;;;;;;;5055159;28;20048;-73
2023/08/20 08:34:43;;;;;;;22.20;9.77;;;;;;;;;;5056470;28;20045;-73
2023/08/20 08:37:09;;;;;;;17.35;8.45;;;;;;;;;;5054911;28;20010;-74
2023/08/20 08:39:35;;;;;;;17.92;8.00;;;;;;;;;;5036785;28;20506;-76
2023/08/20 08:42:05;;;;;;;18.52;7.72;;;;;;;;;;5033625;28;20025;-76
2023/08/20 08:44:33;;;;;;;21.05;6.93;;;;;;;;;;5033965;28;20032;-76
2023/08/20 08:46:59;;;;;;;15.93;6.07;;;;;;;;;;5033437;28;20498;-75
2023/08/20 08:49:26;;;;;;;12.40;5.32;;;;;;;;;;5033435;28;20032;-74
2023/08/20 08:51:54;;;;;;;13.18;5.57;;;;;;;;;;5032763;28;20033;-74
2023/08/20 08:54:20;;;;;;;17.45;5.90;;;;;;;;;;5032906;28;20607;-74
2023/08/20 08:56:46;;;;;;;16.48;5.50;;;;;;;;;;5033466;28;20025;-74
2023/08/20 08:59:12;;;;;;;16.42;5.18;;;;;;;;;;5034113;28;20037;-75
2023/08/20 09:01:42;;;;;;;13.20;4.10;;;;;;;;;;5035334;28;20033;-74
2023/08/20 09:04:08;;;;;;;16.63;4.45;;;;;;;;;;5035586;28;20300;-75
2023/08/20 09:06:47;;;;;;;15.65;3.70;;;;;;;;;;5035236;28;20014;-73
2023/08/20 09:09:13;;;;;;;9.98;3.60;;;;;;;;;;5035743;28;20022;-74
2023/08/20 09:11:39;;;;;;;13.27;4.30;;;;;;;;;;5035691;28;20045;-73
2023/08/20 09:14:05;;;;;;;14.02;3.78;;;;;;;;;;5033893;28;20033;-74
2023/08/20 09:16:32;;;;;;;16.77;3.63;;;;;;;;;;5036785;28;20053;-74
2023/08/20 09:19:01;;;;;;;14.82;3.50;;;;;;;;;;5035394;28;20021;-74
2023/08/20 09:21:29;;;;;;;13.80;4.03;;;;;;;;;;5035355;28;20026;-74
2023/08/20 09:23:55;;;;;;;15.95;3.67;;;;;;;;;;5034964;28;20024;-76
2023/08/20 09:26:21;;;;;;;12.90;3.25;;;;;;;;;;5034413;28;20026;-73
2023/08/20 09:28:47;;;;;;;16.27;3.00;;;;;;;;;;5033814;28;20128;-73
2023/08/20 09:31:14;;;;;;;12.85;3.58;;;;;;;;;;5034809;28;20025;-74
2023/08/20 09:33:49;;;;;;;13.77;3.20;;;;;;;;;;5034536;28;20028;-75
2023/08/20 09:36:15;;;;;;;9.55;2.70;;;;;;;;;;5036143;28;20025;-73
2023/08/20 09:38:41;;;;;;;12.35;2.97;;;;;;;;;;5036658;28;20110;-74
2023/08/20 09:41:09;;;;;;;18.55;3.78;;;;;;;;;;5035856;28;20068;-74
2023/08/20 09:43:38;;;;;;;15.82;3.15;;;;;;;;;;5034724;28;20029;-74
2023/08/20 09:46:05;;;;;;;12.82;3.15;;;;;;;;;;5036863;28;20025;-74
2023/08/20 09:48:35;;;;;;;15.32;3.35;;;;;;;;;;5035069;28;20044;-73
2023/08/20 09:51:02;;;;;;;10.07;2.80;;;;;;;;;;5032428;28;20029;-73
2023/08/20 09:53:35;;;;;;;16.50;3.72;;;;;;;;;;5031779;28;20044;-74
2023/08/20 09:56:05;;;;;;;14.05;2.83;;;;;;;;;;5032724;28;20097;-74
2023/08/20 09:58:32;;;;;;;13.98;3.42;;;;;;;;;;5032329;28;20116;-74
2023/08/20 10:00:58;;;;;;;14.45;3.35;;;;;;;;;;5032871;28;20032;-75
2023/08/20 10:03:24;;;;;;;11.55;3.10;;;;;;;;;;5031339;28;20057;-75
2023/08/20 10:05:51;;;;;;;13.95;3.28;;;;;;;;;;5032513;28;20065;-74
2023/08/20 10:08:17;;;;;;;10.68;3.08;;;;;;;;;;5034054;28;20036;-75
2023/08/20 10:10:44;;;;;;;11.95;3.25;;;;;;;;;;5032510;28;20025;-75
2023/08/20 10:13:10;;;;;;;14.93;3.70;;;;;;;;;;5031317;28;20100;-75
2023/08/20 10:15:37;;;;;;;13.10;3.22;;;;;;;;;;5031904;28;20087;-74
2023/08/20 10:18:04;;;;;;;12.80;3.38;;;;;;;;;;5032612;28;20025;-74
2023/08/20 10:20:30;;;;;;;15.80;3.67;;;;;;;;;;5033391;28;20033;-74
2023/08/20 10:23:00;;;;;;;13.02;3.38;;;;;;;;;;5032813;28;20391;-74
2023/08/20 10:25:27;;;;;;;13.25;3.08;;;;;;;;;;5033130;28;20033;-74
2023/08/20 10:27:53;;;;;;;14.68;3.88;;;;;;;;;;5032623;28;20022;-74
2023/08/20 10:30:26;;;;;;;14.10;3.08;;;;;;;;;;5032539;28;20080;-75
2023/08/20 10:32:53;;;;;;;15.57;3.50;;;;;;;;;;5032181;28;20100;-73
2023/08/20 10:35:23;;;;;;;15.95;3.72;;;;;;;;;;5034339;28;20120;-74
2023/08/20 10:38:11;;;;;;;14.93;4.28;;;;;;;;;;5034666;28;20029;-75
2023/08/20 10:40:56;;;;;;;12.55;3.45;;;;;;;;;;5034966;28;20021;-75
2023/08/20 10:43:25;;;;;;;14.73;4.30;;;;;;;;;;5033062;28;20491;-74
2023/08/20 10:46:03;;;;;;;15.00;3.85;;;;;;;;;;5030796;28;20124;-76
2023/08/20 10:48:30;;;;;;;9.30;2.70;;;;;;;;;;5032957;28;20014;-74
2023/08/20 10:50:56;;;;;;;14.65;2.65;;;;;;;;;;5033175;28;20017;-75
2023/08/20 10:53:23;;;;;;;15.68;2.45;;;;;;;;;;5030780;28;20025;-76
2023/08/20 10:55:49;;;;;;;11.98;3.08;;;;;;;;;;5032796;28;20049;-76
2023/08/20 10:58:15;;;;;;;11.68;3.08;;;;;;;;;;5031935;28;20034;-76
2023/08/20 11:00:42;;;;;;;10.98;2.80;;;;;;;;;;5030124;28;20033;-76
2023/08/20 11:03:08;;;;;;;13.48;3.45;;;;;;;;;;5029907;28;20025;-75
2023/08/20 11:05:34;;;;;;;19.65;2.70;;;;;;;;;;5031192;28;20433;-76
2023/08/20 11:08:03;;;;;;;12.13;2.78;;;;;;;;;;5030326;28;20116;-75
2023/08/20 11:10:29;;;;;;;10.98;2.50;;;;;;;;;;5030656;28;20025;-77
2023/08/20 11:12:55;;;;;;;14.65;3.35;;;;;;;;;;5029679;28;20021;-75
2023/08/20 11:15:21;;;;;;;11.15;3.15;;;;;;;;;;5032261;28;20087;-74
2023/08/20 11:17:48;;;;;;;13.35;2.75;;;;;;;;;;5032179;28;20025;-74
2023/08/20 11:20:17;;;;;;;11.40;2.40;;;;;;;;;;5032287;28;20083;-74
2023/08/20 11:22:43;;;;;;;14.45;2.58;;;;;;;;;;5031068;28;20132;-74
2023/08/20 11:25:13;;;;;;;10.15;2.50;;;;;;;;;;5038581;28;20086;-74
2023/08/20 11:27:42;;;;;;;13.50;3.03;;;;;;;;;;5040814;28;20494;-76
2023/08/20 11:30:11;;;;;;;14.23;2.83;;;;;;;;;;5038612;28;20028;-74
2023/08/20 11:32:38;;;;;;;11.50;3.00;;;;;;;;;;5050618;28;20020;-74
2023/08/20 11:35:04;;;;;;;11.80;2.80;;;;;;;;;;5054168;28;20001;-73
2023/08/20 11:37:31;;;;;;;11.75;2.58;;;;;;;;;;5053937;28;20037;-74
2023/08/20 11:39:57;;;;;;;12.02;3.00;;;;;;;;;;5052217;28;20036;-73
2023/08/20 11:42:23;;;;;;;7.88;2.20;;;;;;;;;;5050081;28;20022;-74
2023/08/20 11:44:49;;;;;;;10.07;2.35;;;;;;;;;;5047589;28;20033;-74
2023/08/20 11:47:18;;;;;;;9.60;2.40;;;;;;;;;;5034632;28;20060;-75
2023/08/20 11:49:45;;;;;;;15.30;2.60;;;;;;;;;;5031520;28;20029;-75
2023/08/20 11:52:13;;;;;;;10.65;2.63;;;;;;;;;;5034848;28;20021;-74
2023/08/20 11:54:39;;;;;;;7.82;2.60;;;;;;;;;;5040409;28;20028;-73
2023/08/20 11:57:06;;;;;;;10.82;2.70;;;;;;;;;;5043932;28;20043;-75
2023/08/20 11:59:32;;;;;;;9.45;2.22;;;;;;;;;;5047137;28;20029;-74
2023/08/20 12:02:05;;;;;;;10.60;3.10;;;;;;;;;;5049888;28;20022;-74
2023/08/20 12:04:31;;;;;;;14.63;2.42;;;;;;;;;;5044706;28;20036;-74
2023/08/20 12:07:04;;;;;;;9.60;2.33;;;;;;;;;;5033514;28;20582;-74
2023/08/20 12:09:30;;;;;;;9.77;2.57;;;;;;;;;;5032420;28;20348;-75
2023/08/20 12:11:57;;;;;;;11.75;2.30;;;;;;;;;;5032613;28;20030;-74
2023/08/20 12:14:23;;;;;;;11.77;2.58;;;;;;;;;;5032805;28;20045;-74
2023/08/20 12:16:53;;;;;;;10.45;2.80;;;;;;;;;;5032887;28;20101;-75
2023/08/20 12:19:19;;;;;;;12.85;2.33;;;;;;;;;;5032675;28;20017;-75
2023/08/20 12:21:45;;;;;;;7.85;2.33;;;;;;;;;;5032638;28;20040;-74
2023/08/20 12:24:11;;;;;;;12.82;2.42;;;;;;;;;;5033576;28;20021;-75
2023/08/20 12:26:37;;;;;;;8.38;2.35;;;;;;;;;;5034112;28;20040;-75
2023/08/20 12:29:03;;;;;;;10.30;2.47;;;;;;;;;;5034067;28;20029;-73
2023/08/20 12:31:29;;;;;;;10.20;2.55;;;;;;;;;;5034123;28;20394;-75
2023/08/20 12:33:55;;;;;;;16.42;3.42;;;;;;;;;;5033381;28;20036;-75
2023/08/20 12:36:21;;;;;;;10.90;2.38;;;;;;;;;;5033651;28;20443;-74
2023/08/20 12:38:47;;;;;;;11.45;2.53;;;;;;;;;;5033667;28;20032;-75
2023/08/20 12:41:14;;;;;;;11.02;4.25;;;;;;;;;;5033508;28;20101;-75
2023/08/20 12:43:40;;;;;;;8.23;2.50;;;;;;;;;;5033981;28;20078;-75
2023/08/20 12:46:06;;;;;;;6.40;2.08;;;;;;;;;;5034423;28;20041;-73
2023/08/20 12:48:32;;;;;;;9.02;2.15;;;;;;;;;;5034309;28;20064;-74
2023/08/20 12:50:58;;;;;;;7.97;2.30;;;;;;;;;;5034497;28;20049;-74
2023/08/20 12:53:24;;;;;;;12.40;3.20;;;;;;;;;;5033945;28;20043;-76
2023/08/20 12:55:51;;;;;;;15.10;2.83;;;;;;;;;;5034330;28;20495;-75
2023/08/20 12:58:17;;;;;;;8.07;2.63;;;;;;;;;;5034460;28;20544;-75
2023/08/20 13:00:43;;;;;;;11.48;2.42;;;;;;;;;;5034195;28;20029;-75
2023/08/20 13:03:09;;;;;;;13.98;3.10;;;;;;;;;;5033067;28;20022;-76
2023/08/20 13:05:35;;;;;;;7.45;2.60;;;;;;;;;;5034140;28;20025;-76
2023/08/20 13:08:01;;;;;;;12.10;2.83;;;;;;;;;;5034815;28;20610;-74
2023/08/20 13:10:28;;;;;;;5.88;1.80;;;;;;;;;;5033592;28;20033;-76
2023/08/20 13:12:55;;;;;;;9.90;3.10;;;;;;;;;;5034665;28;20097;-75
2023/08/20 13:15:22;;;;;;;8.68;2.42;;;;;;;;;;5034516;28;20041;-76
2023/08/20 13:17:49;;;;;;;8.38;2.60;;;;;;;;;;5035032;28;20029;-75
2023/08/20 13:20:15;;;;;;;9.45;2.33;;;;;;;;;;5034626;28;20033;-75
2023/08/20 13:22:42;;;;;;;8.60;2.30;;;;;;;;;;5033832;28;20025;-75
2023/08/20 13:25:08;;;;;;;8.75;2.47;;;;;;;;;;5034925;28;20025;-75
2023/08/20 13:27:34;;;;;;;8.07;2.28;;;;;;;;;;5033649;28;20467;-75
2023/08/20 13:30:01;;;;;;;11.88;2.38;;;;;;;;;;5048321;28;20056;-76
2023/08/20 13:32:27;;;;;;;10.48;2.35;;;;;;;;;;5052217;28;20087;-75
2023/08/20 13:34:53;;;;;;;7.85;2.13;;;;;;;;;;5059068;28;20029;-75
2023/08/20 13:37:19;;;;;;;6.93;1.95;;;;;;;;;;5053764;28;20018;-76
2023/08/20 13:39:45;;;;;;;11.25;2.70;;;;;;;;;;5053548;28;20036;-76
2023/08/20 13:42:11;;;;;;;5.40;2.00;;;;;;;;;;5053364;28;20025;-76
2023/08/20 13:44:37;;;;;;;7.88;1.80;;;;;;;;;;5051829;28;20402;-75
2023/08/20 13:47:03;;;;;;;6.90;2.00;;;;;;;;;;5053471;28;20063;-75
2023/08/20 13:49:29;;;;;;;9.55;2.53;;;;;;;;;;5053206;28;20029;-75
2023/08/20 13:51:55;;;;;;;8.02;2.25;;;;;;;;;;5053118;28;20078;-76
2023/08/20 13:54:21;;;;;;;11.30;2.75;;;;;;;;;;5053812;28;20025;-76
2023/08/20 13:56:47;;;;;;;10.63;3.20;;;;;;;;;;5055434;28;20028;-75
2023/08/20 13:59:13;;;;;;;6.05;2.42;;;;;;;;;;5048187;28;20061;-75
2023/08/20 14:01:39;;;;;;;6.47;2.25;;;;;;;;;;5034495;28;20032;-76
2023/08/20 14:04:05;;;;;;;8.23;2.10;;;;;;;;;;5035677;28;20502;-75
2023/08/20 14:06:31;;;;;;;7.25;1.88;;;;;;;;;;5034538;28;20021;-76
2023/08/20 14:08:57;;;;;;;8.15;2.00;;;;;;;;;;5035861;28;20044;-76
2023/08/20 14:11:23;;;;;;;5.80;1.50;;;;;;;;;;5053082;28;20029;-75
2023/08/20 14:13:49;;;;;;;8.07;1.60;;;;;;;;;;5051527;28;20032;-75
2023/08/20 14:16:15;;;;;;;6.32;1.83;;;;;;;;;;5053100;28;20035;-77
2023/08/20 14:18:41;;;;;;;4.53;2.13;;;;;;;;;;5052603;28;20024;-76
2023/08/20 14:21:07;;;;;;;6.20;2.30;;;;;;;;;;5012789;28;20462;-75
2023/08/20 14:23:34;;;;;;;4.65;1.70;;;;;;;;;;5012855;28;20036;-75
2023/08/20 14:26:00;;;;;;;7.30;1.70;;;;;;;;;;5012258;28;20484;-74